createdAt,value
2018-06-25T13:42:09.020Z,42.99
2018-06-25T13:44:37.941Z,42.65
2018-06-25T13:47:06.733Z,43.18
2018-06-25T13:49:35.370Z,42.12
2018-06-25T13:52:03.965Z,43.54
2018-06-25T13:54:32.513Z,42.64
2018-06-25T13:57:01.081Z,42.31
2018-06-25T13:59:30.429Z,41.46
2018-06-25T14:01:59.027Z,41.24
2018-06-25T14:04:27.697Z,42.87
2018-06-25T14:06:56.303Z,42.22
2018-06-25T14:09:24.903Z,42.48
2018-06-25T14:11:54.097Z,46.15
2018-06-25T14:14:22.624Z,45.73
2018-06-25T14:16:51.904Z,43.42
2018-06-25T14:19:20.521Z,42.81
2018-06-25T14:21:49.097Z,43.71
2018-06-25T14:24:23.038Z,43.75
2018-06-25T14:26:51.717Z,44.27
2018-06-25T14:29:26.061Z,45.42
2018-06-25T14:31:58.865Z,45.30
2018-06-25T14:36:55.089Z,45.70
2018-06-25T14:39:23.800Z,45.47
2018-06-25T14:41:54.598Z,44.93
2018-06-25T14:44:23.266Z,43.45
2018-06-25T14:46:51.827Z,43.76
2018-06-25T14:49:20.464Z,43.71
2018-06-25T14:51:49.087Z,42.87
2018-06-25T14:54:17.634Z,41.84
2018-06-25T14:56:46.225Z,42.37
2018-06-25T14:59:14.774Z,43.61
2018-06-25T15:01:43.365Z,43.31
2018-06-25T15:04:11.952Z,42.52
2018-06-25T15:06:40.589Z,42.93
2018-06-25T15:09:11.362Z,42.07
2018-06-25T15:11:40.017Z,42.06
2018-06-25T15:14:08.645Z,41.72
2018-06-25T15:16:37.285Z,42.19
2018-06-25T15:19:06.173Z,42.27
2018-06-25T15:21:34.737Z,43.80
2018-06-25T15:24:03.278Z,44.63
2018-06-25T15:26:31.897Z,45.95
2018-06-25T15:29:00.506Z,46.14
2018-06-25T15:31:29.189Z,45.75
2018-06-25T15:33:57.828Z,46.17
2018-06-25T15:36:26.489Z,45.37
2018-06-25T15:38:55.001Z,44.83
2018-06-25T15:41:23.604Z,45.29
2018-06-25T15:43:52.298Z,48.00
2018-06-25T15:46:20.878Z,46.19
2018-06-25T15:48:49.416Z,46.25
2018-06-25T15:51:18.038Z,46.69
2018-06-25T15:53:46.582Z,46.19
2018-06-25T15:56:15.206Z,46.46
2018-06-25T15:58:43.734Z,45.66
2018-06-25T16:01:12.518Z,47.17
2018-06-25T16:03:41.112Z,47.70
2018-06-25T16:06:10.377Z,48.74
2018-06-25T16:08:39.041Z,47.72
2018-06-25T16:11:07.823Z,47.93
2018-06-25T16:13:36.369Z,47.53
2018-06-25T16:16:05.012Z,49.03
2018-06-25T16:18:33.678Z,49.60
2018-06-25T16:21:02.377Z,50.77
2018-06-25T16:23:31.272Z,49.43
2018-06-25T16:25:59.994Z,49.42
2018-06-25T16:28:28.596Z,48.60
2018-06-25T16:30:57.252Z,50.07
2018-06-25T16:33:25.851Z,50.38
2018-06-25T16:35:54.536Z,50.48
2018-06-25T16:38:23.129Z,50.29
2018-06-25T16:40:51.832Z,50.69
2018-06-25T16:43:20.382Z,51.45
2018-06-25T16:45:48.957Z,51.40
2018-06-25T16:48:17.468Z,52.39
2018-06-25T16:50:46.168Z,53.09
2018-06-25T16:53:14.724Z,52.66
2018-06-25T16:55:43.377Z,53.26
2018-06-25T16:58:11.897Z,52.34
2018-06-25T17:00:40.514Z,52.26
2018-06-25T17:03:09.186Z,52.54
2018-06-25T17:05:39.660Z,51.50
2018-06-25T17:08:08.256Z,51.11
2018-06-25T17:10:38.470Z,50.15
2018-06-25T17:13:09.498Z,51.73
2018-06-25T17:15:38.184Z,51.97
2018-06-25T17:18:06.767Z,51.23
2018-06-25T17:20:37.226Z,51.44
2018-06-25T17:23:06.000Z,51.41
2018-06-25T17:25:34.570Z,51.39
2018-06-25T17:28:03.270Z,52.01
2018-06-25T17:30:32.355Z,52.04
2018-06-25T17:33:00.867Z,53.00
2018-06-25T17:35:29.466Z,52.07
2018-06-25T17:37:58.013Z,50.75
2018-06-25T17:40:26.656Z,52.43
2018-06-25T17:42:55.189Z,51.59
2018-06-25T17:45:24.462Z,52.29
2018-06-25T17:47:53.273Z,51.78
2018-06-25T17:50:21.894Z,52.13
2018-06-25T17:52:50.657Z,53.02
2018-06-25T17:55:19.320Z,52.42
2018-06-25T17:57:48.547Z,52.28
2018-06-25T18:00:17.172Z,53.28
2018-06-25T18:02:45.766Z,52.54
2018-06-25T18:05:14.560Z,52.17
2018-06-25T18:07:44.041Z,52.66
2018-06-25T18:10:12.745Z,51.92
2018-06-25T18:12:41.376Z,52.76
2018-06-25T18:15:10.062Z,52.23
2018-06-25T18:17:38.966Z,52.73
2018-06-25T18:20:07.541Z,53.00
2018-06-25T18:22:36.220Z,53.00
2018-06-25T18:25:05.037Z,54.63
2018-06-25T18:27:33.677Z,53.95
2018-06-25T18:30:02.286Z,53.23
2018-06-25T18:32:30.930Z,54.48
2018-06-25T18:34:59.556Z,53.35
2018-06-25T18:37:28.194Z,52.41
2018-06-25T18:39:56.877Z,53.13
2018-06-25T18:42:25.460Z,53.33
2018-06-25T18:44:54.038Z,53.73
2018-06-25T18:47:22.697Z,53.65
2018-06-25T18:49:51.364Z,54.04
2018-06-25T18:52:20.012Z,53.74
2018-06-25T18:54:48.581Z,53.71
2018-06-25T18:57:17.235Z,53.54
2018-06-25T18:59:45.852Z,54.20
2018-06-25T19:02:14.469Z,53.98
2018-06-25T19:04:43.117Z,54.41
2018-06-25T19:07:12.645Z,54.92
2018-06-25T19:09:41.212Z,55.05
2018-06-25T19:12:09.868Z,55.77
2018-06-25T19:14:38.472Z,54.30
2018-06-25T19:17:07.160Z,55.25
2018-06-25T19:19:35.790Z,56.15
2018-06-25T19:22:04.339Z,55.76
2018-06-25T19:24:32.924Z,54.93
2018-06-25T19:27:01.523Z,55.91
2018-06-25T19:29:30.247Z,56.25
2018-06-25T19:31:58.865Z,56.58
2018-06-25T19:34:27.616Z,57.41
2018-06-25T19:36:56.242Z,56.94
2018-06-25T19:39:25.009Z,57.29
2018-06-25T19:41:53.534Z,57.56
2018-06-25T19:44:22.170Z,56.93
2018-06-25T19:46:50.830Z,58.22
2018-06-25T19:49:20.782Z,58.03
2018-06-25T19:51:50.340Z,57.13
2018-06-25T19:54:18.920Z,56.98
2018-06-25T19:56:47.779Z,56.66
2018-06-25T19:59:16.326Z,57.25
2018-06-25T20:01:44.966Z,57.08
2018-06-25T20:04:13.616Z,57.21
2018-06-25T20:06:42.396Z,57.25
2018-06-25T20:09:12.480Z,57.33
2018-06-25T20:11:42.052Z,56.67
2018-06-25T20:14:10.869Z,56.79
2018-06-25T20:16:40.622Z,56.91
2018-06-25T20:19:09.398Z,57.66
2018-06-25T20:21:38.078Z,57.33
2018-06-25T20:24:06.729Z,57.67
2018-06-25T20:26:35.456Z,58.57
2018-06-25T20:29:04.144Z,58.74
2018-06-25T20:31:32.819Z,57.90
2018-06-25T20:34:01.537Z,58.30
2018-06-25T20:36:30.097Z,58.29
2018-06-25T20:38:58.770Z,58.57
2018-06-25T20:41:27.384Z,59.45
2018-06-25T20:43:55.981Z,59.31
2018-06-25T20:46:24.624Z,59.38
2018-06-25T20:48:53.349Z,60.34
2018-06-25T20:51:21.956Z,60.14
2018-06-25T20:53:50.621Z,60.14
2018-06-25T20:56:19.229Z,60.19
2018-06-25T20:58:47.824Z,60.34
2018-06-25T21:01:16.392Z,60.42
2018-06-25T21:03:45.181Z,61.06
2018-06-25T21:06:13.908Z,60.97
2018-06-25T21:08:42.458Z,61.29
2018-06-25T21:11:11.233Z,61.52
2018-06-25T21:13:39.955Z,61.29
2018-06-25T21:16:08.558Z,61.86
2018-06-25T21:18:37.311Z,61.60
2018-06-25T21:21:05.985Z,61.17
2018-06-25T21:23:34.884Z,61.59
2018-06-25T21:26:03.693Z,61.66
2018-06-25T21:28:32.361Z,62.36
2018-06-25T21:31:01.056Z,63.44
2018-06-25T21:33:29.751Z,64.04
2018-06-25T21:35:58.745Z,63.09
2018-06-25T21:38:27.575Z,64.13
2018-06-25T21:40:56.211Z,64.16
2018-06-25T21:43:24.800Z,64.57
2018-06-25T21:45:53.455Z,63.93
2018-06-25T21:48:22.006Z,63.73
2018-06-25T21:50:50.585Z,64.22
2018-06-25T21:53:19.161Z,64.83
2018-06-25T21:55:47.889Z,64.52
2018-06-25T21:58:16.596Z,65.26
2018-06-25T22:00:50.009Z,64.86
2018-06-25T22:03:18.653Z,64.96
2018-06-25T22:05:48.025Z,65.32
2018-06-25T22:08:16.768Z,65.07
2018-06-25T22:10:45.398Z,65.31
2018-06-25T22:13:14.222Z,65.01
2018-06-25T22:15:42.862Z,65.05
2018-06-25T22:18:11.526Z,64.86
2018-06-25T22:20:40.122Z,65.07
2018-06-25T22:23:08.945Z,64.91
2018-06-25T22:25:37.629Z,64.51
2018-06-25T22:28:06.259Z,65.04
2018-06-25T22:30:34.869Z,65.17
2018-06-25T22:33:03.445Z,65.14
2018-06-25T22:35:32.164Z,65.15
2018-06-25T22:38:00.826Z,65.49
2018-06-25T22:40:29.549Z,65.85
2018-06-25T22:42:58.241Z,65.45
2018-06-25T22:45:26.926Z,65.26
2018-06-25T22:47:55.544Z,64.95
2018-06-25T22:50:24.285Z,65.66
2018-06-25T22:52:52.937Z,65.94
2018-06-25T22:55:21.733Z,66.94
2018-06-25T22:57:50.293Z,65.84
2018-06-25T23:00:19.089Z,67.28
2018-06-25T23:02:47.680Z,67.77
2018-06-25T23:05:16.506Z,66.85
2018-06-25T23:07:45.144Z,66.57
2018-06-25T23:10:13.792Z,66.69
2018-06-25T23:12:42.371Z,65.98
2018-06-25T23:15:10.933Z,66.20
2018-06-25T23:17:39.608Z,66.42
2018-06-25T23:20:08.269Z,66.50
2018-06-25T23:22:36.884Z,66.71
2018-06-25T23:25:05.533Z,66.15
2018-06-25T23:27:34.147Z,66.65
2018-06-25T23:30:03.206Z,66.98
2018-06-25T23:32:31.848Z,66.92
2018-06-25T23:35:00.392Z,66.59
2018-06-25T23:37:28.946Z,66.71
2018-06-25T23:39:57.572Z,67.16
2018-06-25T23:42:26.123Z,66.77
2018-06-25T23:44:54.704Z,66.28
2018-06-25T23:47:23.292Z,66.50
2018-06-25T23:49:51.913Z,67.41
2018-06-25T23:52:20.465Z,66.88
2018-06-25T23:54:49.076Z,66.60
2018-06-25T23:57:17.766Z,66.14
2018-06-25T23:59:46.437Z,65.31
